Time;durP1;ratioP1;P1;durP2;ratioP2;P2;SDS_P1;SDS_P2;PMS_P1;PMS_P2;Temp;Humidity;BMP_temperature;BMP_pressure;BME280_temperature;BME280_humidity;BME280_pressure;Samples;Min_cycle;Max_cycle;Signal;HPM_P1;HPM_P2
2021/12/17 00:00:22;;;;;;;317.50;46.07;;;;;;;;;;5020816;28;20442;-60
2021/12/17 00:05:32;;;;;;;269.15;52.67;;;;;;;;;;5017559;28;20461;-61
2021/12/17 00:07:57;;;;;;;440.50;59.67;;;;;;;;;;5023309;28;20632;-61
2021/12/17 00:10:22;;;;;;;499.23;66.57;;;;;;;;;;5021000;28;20042;-61
2021/12/17 00:12:47;;;;;;;372.77;60.47;;;;;;;;;;5019992;28;20029;-61
2021/12/17 00:15:13;;;;;;;306.63;51.17;;;;;;;;;;5022409;28;20452;-61
2021/12/17 00:17:49;;;;;;;364.55;53.22;;;;;;;;;;5021566;28;20548;-61
2021/12/17 00:20:41;;;;;;;306.55;55.15;;;;;;;;;;5022018;28;20029;-61
2021/12/17 00:51:00;;;;;;;283.88;55.97;;;;;;;;;;5021115;28;20566;-59
2021/12/17 00:53:21;;;;;;;310.13;56.47;;;;;;;;;;5021389;28;20026;-59
2021/12/17 00:55:47;;;;;;;323.02;58.17;;;;;;;;;;5019938;28;20099;-60
2021/12/17 00:58:12;;;;;;;330.80;54.92;;;;;;;;;;5021184;28;20029;-59
2021/12/17 01:00:37;;;;;;;259.90;47.80;;;;;;;;;;5019362;28;20034;-59
2021/12/17 01:03:03;;;;;;;227.37;48.30;;;;;;;;;;5021121;28;20026;-59
2021/12/17 01:05:29;;;;;;;282.73;53.30;;;;;;;;;;5019478;28;20484;-60
2021/12/17 01:07:55;;;;;;;299.00;52.10;;;;;;;;;;5020089;28;20014;-60
2021/12/17 01:10:24;;;;;;;367.00;53.17;;;;;;;;;;5020193;28;20038;-60
2021/12/17 01:12:50;;;;;;;292.02;53.15;;;;;;;;;;5021267;28;20021;-60
2021/12/17 01:15:17;;;;;;;253.98;54.78;;;;;;;;;;5021491;28;20152;-60
2021/12/17 01:17:45;;;;;;;267.00;48.50;;;;;;;;;;5019922;28;20041;-60
2021/12/17 01:36:13;;;;;;;227.40;45.42;;;;;;;;;;5018803;28;20045;-60
2021/12/17 01:41:45;;;;;;;222.98;47.00;;;;;;;;;;5018989;28;20049;-61
2021/12/17 01:44:09;;;;;;;252.10;50.13;;;;;;;;;;5020341;28;20091;-61
2021/12/17 01:46:36;;;;;;;306.50;50.35;;;;;;;;;;5020162;28;20009;-60
2021/12/17 01:49:24;;;;;;;271.73;47.75;;;;;;;;;;5017445;28;20087;-61
2021/12/17 02:00:09;;;;;;;263.30;54.92;;;;;;;;;;5020491;28;20029;-60
2021/12/17 02:02:41;;;;;;;258.73;53.05;;;;;;;;;;5021031;28;20029;-60
2021/12/17 02:05:07;;;;;;;347.27;52.13;;;;;;;;;;5018598;28;20192;-59
2021/12/17 02:07:32;;;;;;;302.27;55.83;;;;;;;;;;5020956;28;20548;-59
2021/12/17 02:12:58;;;;;;;191.98;38.22;;;;;;;;;;5021108;28;20014;-59
2021/12/17 02:31:32;;;;;;;229.25;50.65;;;;;;;;;;5020720;28;20033;-59
2021/12/17 02:34:01;;;;;;;236.70;54.92;;;;;;;;;;5021011;28;20041;-59
2021/12/17 02:36:30;;;;;;;332.10;57.28;;;;;;;;;;5042663;28;20116;-59
2021/12/17 02:39:06;;;;;;;252.02;52.55;;;;;;;;;;5046173;28;20116;-59
2021/12/17 02:46:59;;;;;;;233.10;54.58;;;;;;;;;;5046728;28;20032;-59
2021/12/17 02:49:26;;;;;;;215.05;53.28;;;;;;;;;;5043415;28;20044;-59
2021/12/17 02:51:51;;;;;;;247.70;56.20;;;;;;;;;;5047712;28;20013;-59
2021/12/17 02:54:17;;;;;;;329.83;59.22;;;;;;;;;;5041458;28;20507;-59
2021/12/17 02:56:42;;;;;;;276.85;56.85;;;;;;;;;;5027020;28;20126;-59
2021/12/17 02:59:12;;;;;;;258.98;52.45;;;;;;;;;;5027080;28;20083;-59
2021/12/17 03:01:37;;;;;;;251.68;52.30;;;;;;;;;;5025025;28;20560;-58
2021/12/17 03:04:03;;;;;;;207.47;51.60;;;;;;;;;;5026619;28;20097;-60
2021/12/17 03:06:28;;;;;;;246.20;50.33;;;;;;;;;;5027147;28;20449;-60
2021/12/17 03:08:53;;;;;;;234.27;49.50;;;;;;;;;;5026864;28;20022;-60
2021/12/17 03:11:18;;;;;;;249.35;53.78;;;;;;;;;;5024099;28;20460;-60
2021/12/17 03:13:45;;;;;;;205.20;47.63;;;;;;;;;;5025612;28;20024;-60
2021/12/17 03:16:24;;;;;;;207.57;47.15;;;;;;;;;;5024523;28;20083;-59
2021/12/17 03:19:05;;;;;;;208.52;49.15;;;;;;;;;;5027028;28;20068;-60
2021/12/17 03:24:18;;;;;;;194.68;52.08;;;;;;;;;;5026302;28;20076;-60
2021/12/17 03:26:44;;;;;;;174.90;43.42;;;;;;;;;;5026663;28;20025;-60
2021/12/17 03:29:09;;;;;;;175.65;45.15;;;;;;;;;;5024352;28;20114;-61
2021/12/17 03:31:34;;;;;;;173.73;45.30;;;;;;;;;;5024922;28;20105;-60
2021/12/17 03:34:34;;;;;;;165.50;40.38;;;;;;;;;;5026411;28;20435;-60
2021/12/17 03:36:54;;;;;;;160.05;39.90;;;;;;;;;;5022669;28;20022;-60
2021/12/17 03:39:20;;;;;;;150.57;41.47;;;;;;;;;;5025110;28;20041;-60
2021/12/17 03:41:50;;;;;;;155.10;41.65;;;;;;;;;;5026550;28;20010;-61
2021/12/17 03:44:15;;;;;;;150.63;34.83;;;;;;;;;;5023491;28;20013;-60
2021/12/17 03:46:41;;;;;;;121.07;34.20;;;;;;;;;;5023639;28;20028;-60
2021/12/17 03:49:06;;;;;;;130.63;35.83;;;;;;;;;;5021595;28;20028;-60
2021/12/17 03:51:35;;;;;;;135.03;33.87;;;;;;;;;;5022856;28;20368;-61
2021/12/17 03:54:00;;;;;;;114.35;33.25;;;;;;;;;;5021040;28;20126;-60
2021/12/17 03:56:26;;;;;;;121.90;34.47;;;;;;;;;;5023025;28;20042;-62
2021/12/17 03:58:53;;;;;;;115.90;31.63;;;;;;;;;;5021995;28;20017;-60
2021/12/17 04:01:19;;;;;;;110.20;33.42;;;;;;;;;;5020504;28;20144;-60
2021/12/17 04:03:44;;;;;;;101.95;34.95;;;;;;;;;;5022595;28;20108;-61
2021/12/17 04:06:09;;;;;;;109.27;37.07;;;;;;;;;;5021171;28;20121;-61
2021/12/17 04:08:35;;;;;;;109.40;33.97;;;;;;;;;;5022946;28;20492;-61
2021/12/17 04:11:08;;;;;;;121.40;32.80;;;;;;;;;;5020771;28;20065;-62
2021/12/17 04:13:36;;;;;;;114.03;34.28;;;;;;;;;;5022504;28;20484;-62
2021/12/17 04:16:06;;;;;;;124.15;34.75;;;;;;;;;;5021529;28;20073;-62
2021/12/17 04:18:32;;;;;;;129.85;34.10;;;;;;;;;;5022838;28;20018;-62
2021/12/17 04:20:59;;;;;;;112.43;35.00;;;;;;;;;;5020348;28;20037;-63
2021/12/17 04:23:24;;;;;;;127.70;37.00;;;;;;;;;;5022714;28;20468;-62
2021/12/17 04:25:50;;;;;;;132.27;38.40;;;;;;;;;;5020613;28;20044;-61
2021/12/17 04:28:16;;;;;;;134.90;36.38;;;;;;;;;;5021503;28;20049;-60
2021/12/17 04:30:41;;;;;;;119.90;33.20;;;;;;;;;;5021567;28;20025;-61
2021/12/17 04:33:06;;;;;;;118.75;37.28;;;;;;;;;;5022735;28;20028;-61
2021/12/17 04:35:32;;;;;;;143.68;40.30;;;;;;;;;;5019214;28;20030;-61
2021/12/17 04:37:58;;;;;;;114.03;35.60;;;;;;;;;;5022407;28;20056;-61
2021/12/17 04:40:24;;;;;;;129.52;40.15;;;;;;;;;;5019905;28;20048;-61
2021/12/17 04:43:00;;;;;;;103.90;32.83;;;;;;;;;;5022275;28;20202;-60
2021/12/17 04:45:26;;;;;;;117.00;36.40;;;;;;;;;;5019159;28;20072;-60
2021/12/17 04:58:46;;;;;;;107.90;37.72;;;;;;;;;;5021192;28;20500;-60
2021/12/17 05:01:14;;;;;;;110.03;34.37;;;;;;;;;;5018158;28;20093;-60
2021/12/17 05:03:39;;;;;;;105.40;35.00;;;;;;;;;;5022985;28;20529;-60
2021/12/17 05:06:04;;;;;;;118.82;34.20;;;;;;;;;;5020314;28;20041;-60
2021/12/17 05:08:30;;;;;;;97.83;31.03;;;;;;;;;;5020554;28;20037;-60
2021/12/17 05:11:17;;;;;;;96.93;31.73;;;;;;;;;;5018280;28;20121;-61
2021/12/17 05:19:38;;;;;;;77.82;26.55;;;;;;;;;;5039086;28;20060;-60
2021/12/17 05:22:08;;;;;;;60.53;23.67;;;;;;;;;;5040634;28;20052;-60
2021/12/17 05:24:33;;;;;;;81.60;25.75;;;;;;;;;;5039221;28;20040;-60
2021/12/17 05:26:59;;;;;;;71.22;24.67;;;;;;;;;;5042477;28;20084;-60
2021/12/17 05:29:24;;;;;;;81.63;26.53;;;;;;;;;;5037741;28;20044;-60
2021/12/17 05:31:49;;;;;;;67.00;28.00;;;;;;;;;;5041414;28;20463;-60
2021/12/17 05:34:14;;;;;;;64.20;23.73;;;;;;;;;;5039227;28;20025;-60
2021/12/17 05:36:39;;;;;;;63.17;26.33;;;;;;;;;;5037871;28;20014;-60
2021/12/17 05:39:04;;;;;;;59.17;23.38;;;;;;;;;;5037826;28;20451;-60
2021/12/17 05:41:30;;;;;;;61.70;25.98;;;;;;;;;;5041361;28;20009;-59
2021/12/17 05:43:57;;;;;;;70.23;25.00;;;;;;;;;;5039746;28;20485;-57
2021/12/17 05:46:36;;;;;;;68.55;24.27;;;;;;;;;;5039960;28;20459;-59
2021/12/17 05:49:02;;;;;;;59.45;24.70;;;;;;;;;;5039933;28;20036;-59
2021/12/17 05:51:27;;;;;;;68.22;25.63;;;;;;;;;;5040827;28;20029;-58
2021/12/17 05:53:53;;;;;;;72.00;25.15;;;;;;;;;;5039373;28;20017;-59
2021/12/17 05:56:18;;;;;;;65.97;25.10;;;;;;;;;;5038165;28;20076;-59
2021/12/17 05:58:43;;;;;;;70.22;24.83;;;;;;;;;;5041198;28;20021;-59
2021/12/17 06:01:08;;;;;;;89.85;28.40;;;;;;;;;;5039434;28;20034;-58
2021/12/17 06:03:33;;;;;;;66.68;23.15;;;;;;;;;;5039966;28;20045;-58
2021/12/17 06:05:59;;;;;;;74.38;27.42;;;;;;;;;;5040067;28;20037;-59
2021/12/17 06:08:24;;;;;;;62.35;23.00;;;;;;;;;;5040145;28;20499;-59
2021/12/17 06:10:49;;;;;;;67.73;23.27;;;;;;;;;;5038208;28;20110;-58
2021/12/17 06:13:14;;;;;;;84.53;24.05;;;;;;;;;;5041721;28;20021;-58
2021/12/17 06:15:39;;;;;;;79.90;25.02;;;;;;;;;;5037724;28;20109;-58
2021/12/17 06:18:04;;;;;;;78.30;26.93;;;;;;;;;;5041048;28;20032;-59
2021/12/17 06:20:30;;;;;;;77.43;25.50;;;;;;;;;;5039286;28;20929;-59
2021/12/17 06:22:55;;;;;;;74.07;25.57;;;;;;;;;;5039307;28;20027;-59
2021/12/17 06:25:20;;;;;;;78.93;27.50;;;;;;;;;;5037956;28;20032;-59
2021/12/17 06:27:45;;;;;;;68.23;22.80;;;;;;;;;;5041057;28;20016;-58
2021/12/17 06:30:11;;;;;;;59.33;21.30;;;;;;;;;;5042003;28;20456;-58
2021/12/17 06:32:37;;;;;;;68.22;25.60;;;;;;;;;;5039530;28;20017;-58
2021/12/17 06:35:03;;;;;;;78.57;23.42;;;;;;;;;;5039716;28;20113;-58
2021/12/17 06:37:28;;;;;;;56.10;21.90;;;;;;;;;;5040059;28;20467;-59
2021/12/17 06:39:54;;;;;;;59.93;22.87;;;;;;;;;;5038300;28;20121;-58
2021/12/17 06:42:19;;;;;;;56.30;21.00;;;;;;;;;;5041285;28;20438;-59
2021/12/17 06:44:46;;;;;;;62.67;25.30;;;;;;;;;;5038369;28;20459;-58
2021/12/17 06:47:24;;;;;;;67.43;23.27;;;;;;;;;;5040312;28;20033;-58
2021/12/17 06:49:57;;;;;;;62.13;21.73;;;;;;;;;;5040067;28;20036;-59
2021/12/17 06:55:26;;;;;;;53.15;22.88;;;;;;;;;;5049365;28;20057;-58
2021/12/17 06:58:36;;;;;;;59.78;20.85;;;;;;;;;;5050592;28;20108;-58
2021/12/17 07:01:13;;;;;;;63.15;21.98;;;;;;;;;;5049033;28;20037;-58
2021/12/17 07:06:51;;;;;;;73.57;27.55;;;;;;;;;;5038439;28;20047;-59
2021/12/17 07:17:25;;;;;;;74.63;25.67;;;;;;;;;;5041312;28;20093;-58
2021/12/17 07:32:00;;;;;;;67.93;26.48;;;;;;;;;;5041773;28;20036;-59
2021/12/17 07:35:46;;;;;;;65.00;25.50;;;;;;;;;;5042683;28;20036;-59
2021/12/17 07:40:56;;;;;;;64.50;25.70;;;;;;;;;;5044233;28;20125;-59
2021/12/17 07:43:38;;;;;;;80.93;26.75;;;;;;;;;;5052856;28;20104;-59
2021/12/17 07:46:05;;;;;;;85.97;28.13;;;;;;;;;;5052652;28;20068;-59
2021/12/17 07:48:30;;;;;;;84.18;29.33;;;;;;;;;;5053953;28;20036;-59
2021/12/17 07:50:55;;;;;;;87.18;26.80;;;;;;;;;;5050232;28;20033;-59
2021/12/17 07:53:21;;;;;;;80.65;28.33;;;;;;;;;;5043268;28;20041;-60
2021/12/17 07:55:46;;;;;;;92.38;33.47;;;;;;;;;;5040744;28;20079;-59
2021/12/17 07:58:11;;;;;;;78.35;27.65;;;;;;;;;;5044512;28;20010;-59
2021/12/17 08:00:36;;;;;;;74.78;29.70;;;;;;;;;;5041800;28;20059;-59
2021/12/17 08:03:03;;;;;;;80.22;31.45;;;;;;;;;;5043637;28;20402;-59
2021/12/17 08:05:28;;;;;;;80.20;27.38;;;;;;;;;;5039753;28;20036;-59
2021/12/17 08:07:53;;;;;;;89.80;30.08;;;;;;;;;;5032508;28;20033;-59
2021/12/17 08:10:19;;;;;;;71.57;28.35;;;;;;;;;;5032124;28;20425;-59
2021/12/17 08:12:44;;;;;;;80.15;29.90;;;;;;;;;;5033483;28;20017;-59
2021/12/17 08:15:11;;;;;;;76.53;26.90;;;;;;;;;;5032200;28;20040;-59
2021/12/17 08:17:51;;;;;;;76.53;28.42;;;;;;;;;;5033503;28;20425;-59
2021/12/17 08:24:04;;;;;;;74.35;29.05;;;;;;;;;;5033423;28;20060;-59
2021/12/17 08:26:06;;;;;;;73.95;26.20;;;;;;;;;;5047916;28;20163;-58
2021/12/17 08:28:52;;;;;;;73.95;26.45;;;;;;;;;;5052566;28;20472;-59
2021/12/17 08:31:17;;;;;;;88.63;30.13;;;;;;;;;;5051512;28;20040;-58
2021/12/17 08:33:43;;;;;;;71.00;24.48;;;;;;;;;;5052052;28;20075;-58
2021/12/17 08:36:08;;;;;;;72.13;23.67;;;;;;;;;;5051134;28;20033;-59
2021/12/17 08:38:33;;;;;;;57.75;24.98;;;;;;;;;;5052714;28;20029;-59
2021/12/17 08:40:59;;;;;;;64.70;26.10;;;;;;;;;;5051482;28;20033;-58
2021/12/17 08:43:25;;;;;;;75.20;23.63;;;;;;;;;;5052289;28;20107;-58
2021/12/17 08:45:50;;;;;;;68.28;23.55;;;;;;;;;;5051392;28;20124;-58
2021/12/17 08:48:15;;;;;;;70.70;28.07;;;;;;;;;;5053078;28;20066;-58
2021/12/17 08:50:40;;;;;;;65.50;29.65;;;;;;;;;;5050618;28;20037;-58
2021/12/17 08:53:05;;;;;;;67.95;27.13;;;;;;;;;;5052722;28;20089;-58
2021/12/17 08:55:31;;;;;;;48.47;20.60;;;;;;;;;;5050885;28;20088;-58
2021/12/17 08:57:56;;;;;;;62.50;22.40;;;;;;;;;;5052462;28;20600;-58
2021/12/17 09:00:21;;;;;;;55.70;23.15;;;;;;;;;;5050901;28;20507;-58
2021/12/17 09:02:47;;;;;;;57.63;23.33;;;;;;;;;;5052557;28;20021;-58
2021/12/17 09:05:12;;;;;;;60.45;25.60;;;;;;;;;;5050836;28;20079;-58
2021/12/17 09:07:38;;;;;;;58.28;23.35;;;;;;;;;;5052061;28;20021;-58
2021/12/17 09:10:05;;;;;;;51.77;20.70;;;;;;;;;;5050901;28;20120;-58
2021/12/17 09:12:31;;;;;;;57.20;23.47;;;;;;;;;;5051054;28;20423;-58
2021/12/17 09:14:57;;;;;;;52.60;23.40;;;;;;;;;;5043997;28;20039;-59
2021/12/17 09:17:24;;;;;;;69.63;32.35;;;;;;;;;;5050561;28;20043;-58
2021/12/17 09:19:49;;;;;;;80.78;32.70;;;;;;;;;;5049018;28;20033;-58
2021/12/17 09:22:15;;;;;;;69.43;33.15;;;;;;;;;;5051896;28;20031;-58
2021/12/17 09:24:40;;;;;;;47.42;18.85;;;;;;;;;;5050297;28;20029;-59
2021/12/17 09:27:05;;;;;;;40.90;18.08;;;;;;;;;;5051306;28;20468;-58
2021/12/17 09:29:30;;;;;;;44.23;18.60;;;;;;;;;;5050146;28;20029;-58
2021/12/17 09:31:55;;;;;;;49.07;17.07;;;;;;;;;;5052132;28;20426;-58
2021/12/17 09:34:21;;;;;;;37.17;17.83;;;;;;;;;;5049753;28;20035;-58
2021/12/17 09:36:46;;;;;;;43.05;19.38;;;;;;;;;;5051462;28;20009;-58
2021/12/17 09:39:11;;;;;;;54.53;26.80;;;;;;;;;;5049265;28;20017;-58
2021/12/17 09:41:40;;;;;;;33.28;16.30;;;;;;;;;;5050124;28;20071;-58
2021/12/17 09:44:05;;;;;;;33.42;15.40;;;;;;;;;;5050112;28;20029;-58
2021/12/17 09:46:30;;;;;;;33.23;16.90;;;;;;;;;;5050833;28;20028;-59
2021/12/17 09:48:57;;;;;;;31.67;15.82;;;;;;;;;;5051462;28;20450;-58
2021/12/17 09:51:22;;;;;;;35.58;15.90;;;;;;;;;;5049643;28;20033;-58
2021/12/17 09:53:47;;;;;;;34.17;17.10;;;;;;;;;;5050557;28;20487;-59
2021/12/17 09:56:13;;;;;;;32.15;15.80;;;;;;;;;;5049383;28;20195;-58
2021/12/17 09:58:38;;;;;;;33.60;14.40;;;;;;;;;;5051324;28;20794;-58
2021/12/17 10:01:03;;;;;;;31.75;16.02;;;;;;;;;;5050038;28;20041;-58
2021/12/17 10:03:29;;;;;;;35.40;18.00;;;;;;;;;;5050873;28;20028;-58
2021/12/17 10:05:54;;;;;;;28.90;13.40;;;;;;;;;;5049943;28;20501;-58
2021/12/17 10:08:20;;;;;;;23.90;14.68;;;;;;;;;;5051361;28;20419;-59
2021/12/17 10:10:47;;;;;;;27.80;15.55;;;;;;;;;;5049502;28;20039;-58
2021/12/17 10:13:14;;;;;;;24.67;15.85;;;;;;;;;;5051432;28;20549;-58
2021/12/17 10:15:44;;;;;;;26.55;14.27;;;;;;;;;;5049566;28;20037;-59
2021/12/17 10:18:10;;;;;;;30.63;15.45;;;;;;;;;;5050958;28;20028;-59
2021/12/17 10:20:41;;;;;;;26.85;15.27;;;;;;;;;;5049601;28;20037;-58
2021/12/17 10:23:08;;;;;;;27.50;16.83;;;;;;;;;;5051224;28;20108;-57
2021/12/17 10:25:34;;;;;;;27.58;15.85;;;;;;;;;;5045817;28;20045;-59
2021/12/17 10:28:01;;;;;;;27.77;13.93;;;;;;;;;;5068467;28;20389;-59
2021/12/17 10:30:27;;;;;;;23.05;14.60;;;;;;;;;;5036109;28;20093;-58
2021/12/17 10:32:54;;;;;;;26.60;14.73;;;;;;;;;;5063388;28;20092;-58
2021/12/17 10:35:24;;;;;;;28.70;14.48;;;;;;;;;;5060117;28;20368;-58
2021/12/17 10:37:52;;;;;;;25.75;15.20;;;;;;;;;;5055995;28;20009;-58
2021/12/17 10:40:18;;;;;;;;;;;;;;;;;;5066110;28;20183;-58
2021/12/17 10:42:51;;;;;;;23.27;13.77;;;;;;;;;;5056660;28;19911;-58
2021/12/17 10:45:24;;;;;;;48.42;17.98;;;;;;;;;;5058968;28;20029;-58
2021/12/17 10:48:01;;;;;;;21.83;16.27;;;;;;;;;;5056946;28;20047;-58
2021/12/17 10:50:27;;;;;;;26.80;14.55;;;;;;;;;;5052397;28;20033;-58
2021/12/17 10:52:56;;;;;;;27.33;14.68;;;;;;;;;;5060876;28;20017;-58
2021/12/17 10:55:22;;;;;;;28.50;16.90;;;;;;;;;;5062423;28;20124;-58
2021/12/17 10:57:48;;;;;;;26.88;16.70;;;;;;;;;;5056406;28;20025;-58
2021/12/17 11:00:16;;;;;;;22.40;12.63;;;;;;;;;;5073565;28;20033;-58
2021/12/17 11:02:51;;;;;;;29.50;18.73;;;;;;;;;;5074411;28;20040;-57
2021/12/17 11:05:16;;;;;;;27.35;16.85;;;;;;;;;;5073297;28;20462;-57
2021/12/17 11:07:49;;;;;;;31.58;17.25;;;;;;;;;;5058073;28;20016;-58
2021/12/17 11:10:15;;;;;;;33.15;18.90;;;;;;;;;;5046659;28;20049;-58
2021/12/17 11:12:41;;;;;;;26.98;14.93;;;;;;;;;;5037730;28;20026;-58
2021/12/17 11:15:12;;;;;;;24.65;16.92;;;;;;;;;;5033205;28;20033;-58
2021/12/17 11:17:38;;;;;;;25.67;15.30;;;;;;;;;;5050424;28;20033;-58
2021/12/17 11:20:08;;;;;;;30.67;18.88;;;;;;;;;;5050791;28;20064;-58
2021/12/17 11:22:34;;;;;;;40.63;23.40;;;;;;;;;;5052076;28;20115;-58
2021/12/17 11:25:00;;;;;;;34.20;24.75;;;;;;;;;;5050909;28;20128;-58
2021/12/17 11:27:26;;;;;;;21.67;17.13;;;;;;;;;;5050539;28;20020;-59
2021/12/17 11:29:51;;;;;;;23.60;15.95;;;;;;;;;;5053043;28;20045;-59
2021/12/17 11:32:18;;;;;;;29.83;17.27;;;;;;;;;;5038006;28;20021;-59
2021/12/17 11:34:43;;;;;;;19.85;14.27;;;;;;;;;;5033749;28;20044;-59
2021/12/17 11:37:09;;;;;;;19.33;13.63;;;;;;;;;;5034101;28;20029;-59
2021/12/17 11:39:38;;;;;;;22.30;14.70;;;;;;;;;;5032318;28;20033;-59
2021/12/17 11:42:18;;;;;;;20.30;14.00;;;;;;;;;;5036886;28;20017;-59
2021/12/17 11:44:52;;;;;;;23.73;15.90;;;;;;;;;;5036390;28;20040;-59
2021/12/17 11:47:18;;;;;;;19.67;15.45;;;;;;;;;;5035020;28;20321;-59
2021/12/17 11:49:49;;;;;;;18.88;13.55;;;;;;;;;;5046903;28;20049;-59
2021/12/17 11:52:15;;;;;;;19.00;14.00;;;;;;;;;;5050661;28;20017;-59
2021/12/17 11:54:40;;;;;;;16.30;12.55;;;;;;;;;;5033695;28;20052;-59
2021/12/17 11:57:07;;;;;;;16.40;12.63;;;;;;;;;;5035492;28;20088;-59
2021/12/17 11:59:34;;;;;;;22.35;12.73;;;;;;;;;;5052254;28;20056;-59
2021/12/17 12:02:02;;;;;;;16.48;12.52;;;;;;;;;;5053584;28;20017;-59
2021/12/17 12:04:30;;;;;;;17.48;13.00;;;;;;;;;;5051935;28;20029;-59
2021/12/17 12:07:02;;;;;;;15.25;12.43;;;;;;;;;;5053461;28;20029;-59
2021/12/17 12:09:47;;;;;;;19.13;12.75;;;;;;;;;;5048889;28;20485;-59
2021/12/17 12:12:12;;;;;;;21.27;12.18;;;;;;;;;;5053723;28;20024;-59
2021/12/17 12:14:37;;;;;;;18.23;11.40;;;;;;;;;;5051907;28;20025;-59
2021/12/17 12:17:02;;;;;;;18.13;12.73;;;;;;;;;;5053102;28;20104;-59
2021/12/17 12:19:47;;;;;;;16.60;11.10;;;;;;;;;;5051656;28;20033;-59
2021/12/17 12:22:12;;;;;;;19.95;13.77;;;;;;;;;;5034586;28;20021;-59
2021/12/17 12:24:37;;;;;;;18.08;11.05;;;;;;;;;;5031348;28;20517;-59
2021/12/17 12:27:03;;;;;;;23.83;16.23;;;;;;;;;;5035514;28;20025;-59
2021/12/17 12:29:29;;;;;;;14.32;10.15;;;;;;;;;;5039339;28;20128;-59
2021/12/17 12:31:59;;;;;;;15.60;11.52;;;;;;;;;;5052970;28;20017;-59
2021/12/17 12:34:28;;;;;;;13.48;10.32;;;;;;;;;;5051245;28;20029;-59
2021/12/17 12:37:00;;;;;;;12.95;11.30;;;;;;;;;;5051026;28;20511;-59
2021/12/17 12:39:25;;;;;;;24.90;16.23;;;;;;;;;;5036936;28;20112;-59
2021/12/17 12:42:09;;;;;;;21.35;12.93;;;;;;;;;;5032843;28;20100;-59
2021/12/17 12:44:49;;;;;;;20.55;13.27;;;;;;;;;;5043859;28;20041;-59
2021/12/17 12:47:20;;;;;;;15.80;11.32;;;;;;;;;;5052411;28;20021;-59
2021/12/17 12:49:51;;;;;;;21.80;12.88;;;;;;;;;;5042846;28;20124;-59
2021/12/17 12:52:27;;;;;;;19.08;14.30;;;;;;;;;;5033904;28;20014;-59
2021/12/17 12:54:54;;;;;;;21.90;15.32;;;;;;;;;;5045173;28;20036;-59
2021/12/17 12:57:26;;;;;;;17.85;14.10;;;;;;;;;;5050964;28;20041;-59
2021/12/17 12:59:52;;;;;;;15.93;12.48;;;;;;;;;;5049268;28;20025;-59
2021/12/17 13:02:18;;;;;;;19.02;11.70;;;;;;;;;;5051659;28;20045;-59
2021/12/17 13:04:43;;;;;;;19.08;14.35;;;;;;;;;;5050792;28;20519;-59
2021/12/17 13:07:08;;;;;;;19.67;12.98;;;;;;;;;;5052113;28;20025;-59
2021/12/17 13:09:40;;;;;;;20.43;14.63;;;;;;;;;;5048483;28;20069;-59
2021/12/17 13:12:07;;;;;;;22.13;12.90;;;;;;;;;;5052323;28;20460;-59
2021/12/17 13:14:33;;;;;;;17.48;12.68;;;;;;;;;;5048018;28;20033;-59
2021/12/17 13:17:41;;;;;;;17.10;11.57;;;;;;;;;;5031471;28;20017;-59
2021/12/17 13:23:00;;;;;;;12.88;10.98;;;;;;;;;;4952041;28;20066;-59
2021/12/17 13:25:26;;;;;;;16.30;10.48;;;;;;;;;;5034570;28;20029;-59
2021/12/17 13:27:54;;;;;;;15.10;12.07;;;;;;;;;;5044196;28;20101;-59
2021/12/17 13:30:20;;;;;;;;;;;;;;;;;;5040562;28;20071;-59
2021/12/17 13:32:45;;;;;;;21.42;16.73;;;;;;;;;;5038081;28;19909;-59
2021/12/17 13:35:14;;;;;;;21.95;16.90;;;;;;;;;;5032406;28;20042;-59
2021/12/17 13:37:39;;;;;;;25.67;20.13;;;;;;;;;;5031153;28;20045;-60
2021/12/17 13:40:09;;;;;;;24.33;18.50;;;;;;;;;;5033164;28;20056;-59
2021/12/17 13:42:42;;;;;;;18.55;16.15;;;;;;;;;;5051602;28;20029;-59
2021/12/17 13:45:11;;;;;;;24.02;15.60;;;;;;;;;;5049851;28;20071;-59
2021/12/17 13:47:38;;;;;;;48.67;37.50;;;;;;;;;;5049237;28;20495;-59
2021/12/17 13:50:06;;;;;;;18.88;15.68;;;;;;;;;;5048830;28;20033;-59
2021/12/17 13:52:33;;;;;;;18.27;13.73;;;;;;;;;;5038302;28;20020;-59
2021/12/17 13:54:59;;;;;;;19.58;16.30;;;;;;;;;;5042358;28;20044;-59
2021/12/17 13:57:26;;;;;;;18.38;13.82;;;;;;;;;;5042922;28;20110;-59
2021/12/17 13:59:51;;;;;;;21.27;16.20;;;;;;;;;;5032038;28;20323;-59
2021/12/17 14:02:18;;;;;;;17.45;14.45;;;;;;;;;;5031344;28;20436;-60
2021/12/17 14:04:56;;;;;;;19.33;13.95;;;;;;;;;;5038151;28;20389;-59
2021/12/17 14:07:22;;;;;;;;;;;;;;;;;;5033664;28;20357;-58
2021/12/17 14:09:54;;;;;;;25.75;17.38;;;;;;;;;;5036049;28;19928;-59
2021/12/17 14:12:30;;;;;;;32.30;20.95;;;;;;;;;;5034235;28;20029;-59
2021/12/17 14:14:56;;;;;;;25.55;18.15;;;;;;;;;;5036054;28;20033;-59
2021/12/17 14:17:21;;;;;;;17.85;14.40;;;;;;;;;;5043529;28;20375;-59
2021/12/17 14:19:47;;;;;;;26.45;15.57;;;;;;;;;;5048476;28;20032;-59
2021/12/17 14:22:27;;;;;;;18.83;14.55;;;;;;;;;;5050636;28;20024;-59
2021/12/17 14:24:52;;;;;;;20.35;15.00;;;;;;;;;;5047679;28;20117;-59
2021/12/17 14:27:17;;;;;;;25.73;14.95;;;;;;;;;;5048615;28;20036;-59
2021/12/17 14:29:43;;;;;;;22.70;14.67;;;;;;;;;;5047994;28;20064;-59
2021/12/17 14:32:14;;;;;;;20.37;14.37;;;;;;;;;;5048610;28;20447;-58
2021/12/17 14:34:40;;;;;;;22.88;14.25;;;;;;;;;;5034283;28;20468;-58
2021/12/17 14:37:05;;;;;;;19.38;15.35;;;;;;;;;;5041533;28;20018;-58
2021/12/17 14:39:34;;;;;;;23.55;15.18;;;;;;;;;;5030335;28;20068;-58
2021/12/17 14:42:02;;;;;;;;;;;;;;;;;;5049807;28;20024;-58
2021/12/17 14:47:02;;;;;;;20.70;15.07;;;;;;;;;;5042492;28;20358;-58
2021/12/17 15:05:33;;;;;;;21.75;15.70;;;;;;;;;;5035382;28;20049;-59
2021/12/17 15:07:59;;;;;;;20.30;14.00;;;;;;;;;;5035281;28;20055;-58
2021/12/17 15:10:25;;;;;;;25.98;15.85;;;;;;;;;;5045949;28;20426;-58
2021/12/17 15:12:56;;;;;;;21.55;16.23;;;;;;;;;;5048272;28;20013;-58
2021/12/17 15:15:22;;;;;;;18.33;15.20;;;;;;;;;;5035529;28;20033;-59
2021/12/17 15:17:49;;;;;;;20.45;16.13;;;;;;;;;;5038753;28;20521;-58
2021/12/17 15:20:15;;;;;;;49.10;30.48;;;;;;;;;;5033760;28;20048;-59
2021/12/17 15:22:41;;;;;;;21.25;16.55;;;;;;;;;;5054808;28;20020;-59
2021/12/17 15:25:08;;;;;;;18.35;14.52;;;;;;;;;;5043370;28;20086;-59
2021/12/17 15:27:35;;;;;;;17.50;14.43;;;;;;;;;;5049318;28;20029;-58
2021/12/17 15:30:01;;;;;;;20.00;15.60;;;;;;;;;;5035570;28;20041;-58
2021/12/17 15:32:26;;;;;;;17.30;12.73;;;;;;;;;;5048362;28;20021;-58
2021/12/17 15:34:52;;;;;;;17.40;14.30;;;;;;;;;;5042669;28;20113;-58
2021/12/17 15:37:17;;;;;;;16.05;11.60;;;;;;;;;;5030151;28;20018;-59
2021/12/17 15:39:42;;;;;;;13.23;11.80;;;;;;;;;;5039013;28;20033;-58
2021/12/17 15:42:09;;;;;;;14.53;12.20;;;;;;;;;;5042035;28;20048;-58
2021/12/17 15:44:35;;;;;;;16.55;11.27;;;;;;;;;;5036650;28;20453;-58
2021/12/17 15:47:00;;;;;;;14.37;10.23;;;;;;;;;;5053440;28;20104;-58
2021/12/17 15:49:25;;;;;;;13.18;11.35;;;;;;;;;;5038901;28;20497;-58
2021/12/17 15:51:50;;;;;;;10.80;9.70;;;;;;;;;;5040785;28;20112;-58
2021/12/17 15:54:15;;;;;;;13.05;9.40;;;;;;;;;;5047634;28;20454;-59
2021/12/17 15:56:46;;;;;;;12.77;8.67;;;;;;;;;;5040101;28;20116;-58
2021/12/17 15:59:11;;;;;;;12.13;8.80;;;;;;;;;;5036337;28;20021;-58
2021/12/17 16:01:36;;;;;;;10.48;8.60;;;;;;;;;;5036611;28;20029;-58
2021/12/17 16:04:01;;;;;;;13.68;10.15;;;;;;;;;;5034829;28;20029;-58
2021/12/17 16:06:26;;;;;;;11.60;9.20;;;;;;;;;;5036050;28;20064;-58
2021/12/17 16:08:55;;;;;;;12.15;10.57;;;;;;;;;;5041286;28;20017;-59
2021/12/17 16:21:56;;;;;;;19.15;15.63;;;;;;;;;;5023570;28;20049;-58
2021/12/17 16:24:21;;;;;;;66.93;60.25;;;;;;;;;;5031363;28;20044;-58
2021/12/17 16:26:46;;;;;;;62.15;55.78;;;;;;;;;;5032161;28;20025;-58
2021/12/17 16:29:17;;;;;;;96.95;87.28;;;;;;;;;;5029123;28;20017;-58
2021/12/17 16:31:42;;;;;;;67.88;59.15;;;;;;;;;;5030064;28;20527;-58
2021/12/17 16:34:07;;;;;;;88.38;76.18;;;;;;;;;;5020011;28;20054;-58
2021/12/17 16:36:34;;;;;;;45.85;37.78;;;;;;;;;;5032091;28;20381;-58
2021/12/17 16:39:00;;;;;;;31.80;22.40;;;;;;;;;;5043586;28;20408;-57
2021/12/17 16:41:25;;;;;;;23.55;17.42;;;;;;;;;;5032133;28;20048;-58
2021/12/17 16:43:59;;;;;;;21.27;17.05;;;;;;;;;;5032989;28;20026;-58
2021/12/17 16:47:01;;;;;;;30.70;20.55;;;;;;;;;;5019018;28;20068;-58
2021/12/17 16:49:11;;;;;;;21.75;17.27;;;;;;;;;;5013570;28;20088;-58
2021/12/17 16:51:36;;;;;;;19.30;15.95;;;;;;;;;;5021176;28;20033;-57
2021/12/17 16:54:02;;;;;;;25.77;19.08;;;;;;;;;;5028796;28;20392;-58
2021/12/17 16:56:27;;;;;;;22.10;17.20;;;;;;;;;;5018676;28;20050;-58
2021/12/17 16:58:52;;;;;;;27.00;19.87;;;;;;;;;;5020788;28;20468;-58
2021/12/17 17:01:18;;;;;;;25.90;17.48;;;;;;;;;;5028307;28;20483;-58
2021/12/17 17:03:44;;;;;;;23.83;18.17;;;;;;;;;;5017283;28;20018;-58
2021/12/17 17:06:09;;;;;;;22.23;17.20;;;;;;;;;;5011170;28;20044;-58